Sunbury, PA (17801)

3:04 PM EST on December 08, 2016 (GMT -0500)
KPASUNBU2 | | Change Station

Elev 508 ft 40.86 °N, 76.78 °W | Updated 11 seconds ago

Clear
Clear
37.8 °F
Feels Like 30 °F
N
11.4
Wind Variable Wind from South
Gusts 19.0 mph

Today
High -- | Low -- °F
--% Chance of Precip.
Yesterday
High -- | Low -- °F
Precip. -- in
Pressure 29.99 in
Visibility 10.0 miles
Clouds Scattered Clouds 5000 ft
Windchill 30 °F
Dew Point -14 °F
Humidity 10%
Rainfall 0.05 in
Snow Depth Not available.
7:19 AM 4:39 PM
Waxing Gibbous, 66% visible
METAR KSEG 081953Z AUTO 26009G21KT 10SM SCT050 03/M07 A2998 RMK AO2 SLP156 T00331072
Pressure 29.99 in
Visibility 10.0 miles
Clouds Scattered Clouds 5000 ft
Windchill 30 °F
Dew Point -14 °F
Humidity 10%
Rainfall 0.05 in
Snow Depth Not available.
7:19 AM 4:39 PM
Waxing Gibbous, 66% visible
METAR KSEG 081953Z AUTO 26009G21KT 10SM SCT050 03/M07 A2998 RMK AO2 SLP156 T00331072

10-Day Weather Forecast

Almanac

Astronomy

Dec. 08, 2016 Rise Set
Actual Time
Civil Twilight
Nautical Twilight
Astronomical Twilight
Moon
Length of Visible Light
Length of Day
Tomorrow will be .
, % of the Moon is Illuminated

Today's Extremes

State Highs State Lows

Community

WunderPhotos

Upload Photos

1,956,277 photos uploaded!

WunderBlog® & News

Nearby

Air Quality

  Air Quality AQ Index Pollutant
Not available.

Snow Depth

Station Depth Elevation

Earthquake Activity

City Distance Mag. Time & Date
Minimum magnitude displayed is 2.5.

Coastal Water Temperatures

Place Temperature

Stations

Nearby Weather Stations

Station Location Temp. Windchill Dew Point Humidity Wind Precip. Elev Updated Type
                   

Watches & Warnings

There are currently no watches in effect.